Kezdőlap
METAR-TAF:

METAR-TAF

Repülőterek :

Tri-Township Airport

Savanna, Illinois, Amerikai Egyesült Államok

földrajzi szélesség: 42-02-45N, földrajzi hosszúság: 090-06-28W, magasság: 188 m

Jelenlegi meteorológiai megfigyelések

A jelentés 20 perccel ezelõtt készült, 12:35 UTC
Északnyugati szél 3 kt
Hőmérséklet -1°C
Páratartalom 100%
Légköri nyomás 1026 hPa
Látótávolság: 6.4 km
Szórványos felhőzet 11000 lábon
Párásság

METAR: KSFY 041235Z AUTO 31003KT 4SM BR SCT110 M01/M01 A3030 RMK AO2

Idő: 06:55 (12:55 UTC)


TAF: hiányzik

Meteorológiai megfigyelések és előrejelzések több, mint 4000 repülőtéren (METAR és TAF jelentéseket).

A térképen piros és sárga pontok jelzik az elérhető meteorológiai állomásokat.

Mozgassa az egeret a pont fölött, hogy megjelenjen az állomás neve.

Azután kattintson az időjárási megfigyelések és előrejelzések megtekintéséhez.

A térkép megváltoztatása: kattintson a fekete keresztel jelölt zöld gombra ráközelítéshez, a vonallal jelölt zöld gombra távolításhoz, vagy a zöld nyilakra a szomszédos térképek eléréséhez.


METAR-TAF: